createdAt,value
2019-05-09T00:02:05.367Z,12.23
2019-05-09T00:04:34.384Z,14.13
2019-05-09T00:07:03.623Z,15.65
2019-05-09T00:09:33.635Z,14.23
2019-05-09T00:12:03.712Z,12.30
2019-05-09T00:14:34.240Z,13.38
2019-05-09T00:17:03.830Z,13.40
2019-05-09T00:19:33.383Z,14.90
2019-05-09T00:22:03.473Z,12.60
2019-05-09T00:24:33.243Z,14.58
2019-05-09T00:27:03.885Z,14.87
2019-05-09T00:29:34.468Z,13.13
2019-05-09T00:32:07.962Z,14.18
2019-05-09T00:34:56.822Z,11.35
2019-05-09T00:37:44.127Z,11.12
2019-05-09T00:40:13.282Z,14.55
2019-05-09T00:42:44.035Z,13.80
2019-05-09T00:45:14.668Z,13.15
2019-05-09T00:47:43.433Z,13.45
2019-05-09T00:50:13.217Z,13.13
2019-05-09T00:52:43.085Z,13.22
2019-05-09T00:55:13.263Z,16.12
2019-05-09T00:57:43.984Z,17.02
2019-05-09T01:00:15.010Z,14.47
2019-05-09T01:02:44.311Z,11.38
2019-05-09T01:05:13.631Z,15.25
2019-05-09T01:07:43.168Z,12.53
2019-05-09T01:10:13.364Z,16.80
2019-05-09T01:12:43.511Z,15.25
2019-05-09T01:15:13.417Z,16.15
2019-05-09T01:17:44.191Z,20.48
2019-05-09T01:20:14.735Z,15.15
2019-05-09T01:22:43.668Z,14.38
2019-05-09T01:25:13.429Z,12.85
2019-05-09T01:27:43.149Z,12.50
2019-05-09T01:30:13.502Z,12.93
2019-05-09T01:32:50.155Z,11.73
2019-05-09T01:35:19.287Z,12.58
2019-05-09T01:37:48.242Z,13.32
2019-05-09T01:40:16.889Z,13.03
2019-05-09T01:42:45.785Z,11.08
2019-05-09T01:45:14.460Z,10.05
2019-05-09T01:47:43.571Z,9.75
2019-05-09T01:50:13.994Z,11.20
2019-05-09T01:52:43.915Z,10.35
2019-05-09T01:55:14.199Z,14.53
2019-05-09T01:57:47.446Z,9.78
2019-05-09T02:00:14.515Z,13.60
2019-05-09T02:02:43.659Z,12.50
2019-05-09T02:05:13.472Z,8.80
2019-05-09T02:07:43.839Z,10.05
2019-05-09T02:10:13.946Z,10.60
2019-05-09T02:12:43.095Z,9.83
2019-05-09T02:15:20.114Z,12.45
2019-05-09T02:17:58.881Z,8.75
2019-05-09T02:20:24.436Z,9.95
2019-05-09T02:22:54.238Z,15.48
2019-05-09T02:25:24.238Z,12.20
2019-05-09T02:27:55.247Z,11.75
2019-05-09T02:30:25.374Z,13.62
2019-05-09T02:32:54.895Z,12.93
2019-05-09T02:35:23.945Z,13.40
2019-05-09T02:37:52.630Z,10.28
2019-05-09T02:40:21.384Z,9.78
2019-05-09T02:42:53.436Z,9.63
2019-05-09T02:45:28.762Z,9.75
2019-05-09T02:47:59.006Z,12.90
2019-05-09T02:50:28.660Z,12.63
2019-05-09T02:52:59.027Z,10.05
2019-05-09T02:55:28.927Z,10.98
2019-05-09T02:57:59.394Z,11.60
2019-05-09T03:00:42.790Z,11.95
2019-05-09T03:03:13.376Z,7.95
2019-05-09T03:05:42.361Z,10.40
2019-05-09T03:08:11.478Z,12.58
2019-05-09T03:10:40.048Z,10.43
2019-05-09T03:13:09.496Z,10.85
2019-05-09T03:15:39.416Z,9.03
2019-05-09T03:18:09.394Z,9.23
2019-05-09T03:20:52.070Z,10.15
2019-05-09T03:23:21.181Z,11.40
2019-05-09T03:25:53.453Z,10.80
2019-05-09T03:28:28.344Z,10.82
2019-05-09T03:30:59.352Z,8.85
2019-05-09T03:33:30.851Z,11.53
2019-05-09T03:35:59.539Z,10.35
2019-05-09T03:38:28.569Z,10.55
2019-05-09T03:40:58.055Z,11.60
2019-05-09T03:43:27.651Z,13.90
2019-05-09T03:46:13.326Z,10.60
2019-05-09T03:48:58.145Z,11.05
2019-05-09T03:51:27.526Z,9.10
2019-05-09T03:53:57.615Z,9.18
2019-05-09T03:56:37.456Z,13.05
2019-05-09T03:59:05.411Z,12.07
2019-05-09T04:01:34.355Z,11.90
2019-05-09T04:04:03.501Z,11.83
2019-05-09T04:06:32.721Z,9.75
2019-05-09T04:09:01.564Z,13.70
2019-05-09T04:11:30.831Z,10.90
2019-05-09T04:14:08.331Z,14.47
2019-05-09T04:16:38.162Z,12.35
2019-05-09T04:19:08.310Z,10.43
2019-05-09T04:21:38.330Z,12.30
2019-05-09T04:24:08.513Z,10.75
2019-05-09T04:26:39.194Z,13.98
2019-05-09T04:29:08.202Z,12.33
2019-05-09T04:31:38.353Z,12.65
2019-05-09T04:34:09.663Z,10.53
2019-05-09T04:36:44.011Z,11.22
2019-05-09T04:39:21.475Z,10.98
2019-05-09T04:41:43.817Z,9.95
2019-05-09T04:44:19.201Z,11.95
2019-05-09T04:46:48.026Z,14.05
2019-05-09T04:49:18.981Z,11.45
2019-05-09T04:51:47.942Z,12.37
2019-05-09T04:54:17.881Z,13.18
2019-05-09T04:56:47.588Z,13.22
2019-05-09T04:59:17.898Z,12.45
2019-05-09T05:01:58.321Z,12.25
2019-05-09T05:04:28.272Z,12.95
2019-05-09T05:06:58.572Z,23.22
2019-05-09T05:09:27.901Z,12.30
2019-05-09T05:12:02.378Z,12.30
2019-05-09T05:14:32.016Z,11.15
2019-05-09T05:17:07.706Z,13.08
2019-05-09T05:19:35.451Z,13.68
2019-05-09T05:22:04.586Z,13.25
2019-05-09T05:24:41.093Z,12.43
2019-05-09T05:27:10.188Z,13.72
2019-05-09T05:29:39.148Z,12.28
2019-05-09T05:32:09.849Z,14.83
2019-05-09T05:34:43.392Z,11.00
2019-05-09T05:37:12.587Z,14.58
2019-05-09T05:39:41.577Z,13.03
2019-05-09T05:42:10.823Z,15.40
2019-05-09T05:44:40.037Z,14.53
2019-05-09T05:47:10.944Z,13.28
2019-05-09T05:49:39.762Z,14.20
2019-05-09T05:52:09.125Z,12.43
2019-05-09T05:54:38.227Z,13.88
2019-05-09T05:57:08.477Z,13.15
2019-05-09T05:59:40.781Z,15.20
2019-05-09T06:02:08.765Z,12.60
2019-05-09T06:04:38.266Z,14.23
2019-05-09T06:07:08.196Z,16.07
2019-05-09T06:09:38.092Z,13.32
2019-05-09T06:12:08.398Z,16.25
2019-05-09T06:14:37.984Z,14.35
2019-05-09T06:17:08.049Z,14.98
2019-05-09T06:19:38.122Z,17.17
2019-05-09T06:22:08.184Z,17.35
2019-05-09T06:24:38.760Z,14.90
2019-05-09T06:27:10.453Z,14.90
2019-05-09T06:29:38.886Z,16.87
2019-05-09T06:32:08.159Z,16.00
2019-05-09T06:34:41.653Z,17.98
2019-05-09T06:37:09.084Z,16.37
2019-05-09T06:39:38.055Z,13.65
2019-05-09T06:42:09.078Z,14.65
2019-05-09T06:44:38.991Z,19.23
2019-05-09T06:47:09.126Z,16.85
2019-05-09T06:49:39.423Z,17.35
2019-05-09T06:52:08.864Z,14.63
2019-05-09T06:54:41.317Z,18.00
2019-05-09T06:57:08.163Z,17.37
2019-05-09T06:59:38.162Z,19.07
2019-05-09T07:02:09.068Z,19.70
2019-05-09T07:04:39.776Z,17.07
2019-05-09T07:07:11.274Z,18.15
2019-05-09T07:09:48.835Z,20.00
2019-05-09T07:12:18.127Z,17.77
2019-05-09T07:14:48.780Z,18.73
2019-05-09T07:17:18.842Z,19.37
2019-05-09T07:19:50.405Z,20.17
2019-05-09T07:22:27.865Z,19.60
2019-05-09T07:25:09.327Z,19.52
2019-05-09T07:27:35.828Z,19.75
2019-05-09T07:30:19.403Z,19.23
2019-05-09T07:32:52.488Z,20.60
2019-05-09T07:35:21.905Z,20.72
2019-05-09T07:37:52.676Z,23.50
2019-05-09T07:40:21.891Z,20.48
2019-05-09T07:42:50.906Z,19.00
2019-05-09T07:45:20.685Z,22.27
2019-05-09T07:47:49.963Z,19.32
2019-05-09T07:50:19.603Z,20.00
2019-05-09T07:52:48.913Z,16.77
2019-05-09T07:55:18.252Z,18.40
2019-05-09T07:57:55.105Z,22.22
2019-05-09T08:00:22.077Z,18.20
2019-05-09T08:02:57.974Z,19.12
2019-05-09T08:05:28.056Z,20.75
2019-05-09T08:07:58.642Z,18.17
2019-05-09T08:10:32.713Z,21.55
2019-05-09T08:12:59.567Z,20.40
2019-05-09T08:15:28.818Z,19.42
2019-05-09T08:17:59.387Z,21.87
2019-05-09T08:20:29.128Z,18.75
2019-05-09T08:23:01.911Z,20.12
2019-05-09T08:25:29.560Z,20.48
2019-05-09T08:27:59.556Z,18.10
2019-05-09T08:30:35.869Z,21.25
2019-05-09T08:33:00.780Z,22.75
2019-05-09T08:35:29.751Z,22.58
2019-05-09T08:37:58.963Z,23.92
2019-05-09T08:40:28.626Z,23.80
2019-05-09T08:42:58.846Z,23.38
2019-05-09T08:45:31.341Z,25.97
2019-05-09T08:47:59.414Z,21.97
2019-05-09T08:50:33.594Z,21.85
2019-05-09T08:53:04.115Z,21.30
2019-05-09T08:55:33.502Z,18.98
2019-05-09T08:58:02.944Z,17.75
2019-05-09T09:00:32.583Z,20.80
2019-05-09T09:03:02.016Z,19.57
2019-05-09T09:05:31.904Z,20.57
2019-05-09T09:08:01.502Z,17.20
2019-05-09T09:10:30.907Z,17.90
2019-05-09T09:13:00.158Z,21.17
2019-05-09T09:15:56.061Z,16.52
2019-05-09T09:18:00.225Z,17.80
2019-05-09T09:20:29.788Z,17.32
2019-05-09T09:22:59.045Z,17.87
2019-05-09T09:25:28.774Z,20.88
2019-05-09T09:28:01.073Z,17.23
2019-05-09T09:30:30.792Z,16.07
2019-05-09T09:33:00.009Z,19.12
2019-05-09T09:35:29.328Z,18.27
2019-05-09T09:37:59.036Z,24.43
2019-05-09T09:40:28.244Z,17.32
2019-05-09T09:42:58.251Z,17.25
2019-05-09T09:45:28.340Z,18.05
2019-05-09T09:48:01.075Z,16.70
2019-05-09T09:50:30.322Z,19.10
2019-05-09T09:52:59.765Z,17.92
2019-05-09T09:55:30.009Z,16.97
2019-05-09T09:58:00.789Z,18.62
2019-05-09T10:01:02.778Z,15.55
2019-05-09T10:03:30.797Z,16.87
2019-05-09T10:06:01.140Z,15.98
2019-05-09T10:08:31.285Z,16.73
2019-05-09T10:11:00.604Z,16.57
2019-05-09T10:13:29.629Z,17.32
2019-05-09T10:16:02.838Z,18.70
2019-05-09T10:18:38.162Z,20.43
2019-05-09T10:21:21.238Z,17.17
2019-05-09T10:23:50.878Z,15.63
2019-05-09T10:26:20.560Z,20.80
2019-05-09T10:28:50.207Z,22.42
2019-05-09T10:31:19.676Z,25.15
2019-05-09T10:33:49.290Z,24.47
2019-05-09T10:36:21.641Z,18.55
2019-05-09T10:38:51.703Z,24.65
2019-05-09T10:41:22.645Z,24.02
2019-05-09T10:43:59.677Z,26.07
2019-05-09T10:46:51.428Z,37.67
2019-05-09T10:49:11.094Z,31.60
2019-05-09T10:51:40.418Z,22.75
2019-05-09T10:54:09.608Z,16.95
2019-05-09T10:56:38.999Z,16.32
2019-05-09T10:59:08.172Z,16.45
2019-05-09T11:01:38.365Z,16.52
2019-05-09T11:04:08.404Z,15.68
2019-05-09T11:06:38.579Z,13.95
2019-05-09T11:09:09.272Z,16.52
2019-05-09T11:11:38.548Z,16.77
2019-05-09T11:14:08.554Z,15.23
2019-05-09T11:16:47.413Z,15.58
2019-05-09T11:19:15.185Z,15.28
2019-05-09T11:21:44.337Z,15.00
2019-05-09T11:24:13.471Z,17.95
2019-05-09T11:26:42.708Z,16.57
2019-05-09T11:29:12.056Z,16.60
2019-05-09T11:31:41.464Z,16.00
2019-05-09T11:34:10.510Z,16.32
2019-05-09T11:36:39.797Z,16.35
2019-05-09T11:39:10.614Z,17.92
2019-05-09T11:41:40.289Z,17.02
2019-05-09T11:44:09.187Z,14.18
2019-05-09T11:46:38.523Z,15.63
2019-05-09T11:49:08.172Z,11.63
2019-05-09T11:51:38.032Z,12.85
2019-05-09T11:54:09.093Z,17.25
2019-05-09T11:56:38.432Z,18.75
2019-05-09T11:59:10.013Z,12.50
2019-05-09T12:01:39.713Z,12.65
2019-05-09T12:04:09.559Z,11.38
2019-05-09T12:06:39.637Z,16.00
2019-05-09T12:09:09.902Z,11.18
2019-05-09T12:11:43.970Z,10.32
2019-05-09T12:14:10.204Z,10.58
2019-05-09T12:16:39.403Z,8.98
2019-05-09T12:19:08.587Z,9.78
2019-05-09T12:21:46.887Z,9.53
2019-05-09T12:24:09.198Z,11.12
2019-05-09T12:26:39.076Z,11.75
2019-05-09T12:29:08.961Z,11.48
2019-05-09T12:31:38.724Z,11.75
2019-05-09T12:34:09.128Z,11.00
2019-05-09T12:36:39.738Z,11.22
2019-05-09T12:39:09.621Z,12.25
2019-05-09T12:41:38.772Z,9.50
2019-05-09T12:44:08.840Z,11.05
2019-05-09T12:46:39.302Z,11.20
2019-05-09T12:49:09.562Z,9.88
2019-05-09T12:51:38.921Z,10.38
2019-05-09T12:54:08.772Z,10.32
2019-05-09T12:56:38.633Z,8.70
2019-05-09T12:59:08.728Z,8.58
2019-05-09T13:01:40.929Z,9.10
2019-05-09T13:04:09.699Z,9.53
2019-05-09T13:06:42.074Z,8.90
2019-05-09T13:09:11.451Z,8.95
2019-05-09T13:11:41.019Z,9.15
2019-05-09T13:14:10.393Z,8.78
2019-05-09T13:16:50.694Z,11.28
2019-05-09T13:19:19.982Z,9.15
2019-05-09T13:21:49.420Z,9.70
2019-05-09T13:24:19.602Z,8.83
2019-05-09T13:26:51.549Z,8.33
2019-05-09T13:29:20.658Z,10.93
2019-05-09T13:31:49.967Z,9.28
2019-05-09T13:34:19.134Z,8.43
2019-05-09T13:36:48.878Z,8.28
2019-05-09T13:39:18.264Z,8.10
2019-05-09T13:41:47.828Z,11.25
2019-05-09T13:44:18.095Z,8.18
2019-05-09T13:46:48.903Z,7.12
2019-05-09T13:49:19.348Z,6.17
2019-05-09T13:51:58.222Z,7.28
2019-05-09T13:54:21.934Z,7.15
2019-05-09T13:56:57.598Z,6.85
2019-05-09T13:59:29.265Z,6.55
2019-05-09T14:01:58.098Z,6.25
2019-05-09T14:04:30.211Z,8.38
2019-05-09T14:06:59.430Z,7.08
2019-05-09T14:09:29.424Z,8.68
2019-05-09T14:11:59.141Z,8.48
2019-05-09T14:14:30.976Z,8.08
2019-05-09T14:17:00.503Z,7.80
2019-05-09T14:19:40.398Z,6.97
2019-05-09T14:22:00.651Z,6.30
2019-05-09T14:24:29.537Z,7.22
2019-05-09T14:26:59.048Z,7.42
2019-05-09T14:29:31.644Z,6.08
2019-05-09T14:31:59.700Z,6.10
2019-05-09T14:34:30.215Z,11.73
2019-05-09T14:36:59.105Z,8.63
2019-05-09T14:39:28.308Z,9.35
2019-05-09T14:41:57.838Z,10.78
2019-05-09T14:44:27.808Z,7.87
2019-05-09T14:46:58.401Z,7.15
2019-05-09T14:49:39.639Z,8.25
2019-05-09T14:51:59.573Z,10.00
2019-05-09T14:54:29.105Z,10.23
2019-05-09T14:56:58.506Z,9.43
2019-05-09T14:59:28.610Z,8.83
2019-05-09T15:01:59.077Z,10.45
2019-05-09T15:04:28.540Z,9.48
2019-05-09T15:06:58.019Z,17.48
2019-05-09T15:09:28.444Z,174.38
2019-05-09T15:11:58.529Z,117.80
2019-05-09T15:14:28.955Z,70.55
2019-05-09T15:16:58.392Z,35.15
2019-05-09T15:19:28.751Z,28.05
2019-05-09T15:22:00.745Z,20.15
2019-05-09T15:24:29.027Z,12.03
2019-05-09T15:26:59.290Z,11.83
2019-05-09T15:29:29.089Z,10.90
2019-05-09T15:32:05.615Z,17.98
2019-05-09T15:34:29.088Z,10.48
2019-05-09T15:36:58.396Z,10.68
2019-05-09T15:39:27.903Z,8.88
2019-05-09T15:41:57.934Z,9.23
2019-05-09T15:44:28.007Z,8.50
2019-05-09T15:47:07.445Z,9.33
2019-05-09T15:49:38.357Z,7.50
2019-05-09T15:52:07.392Z,6.67
2019-05-09T15:54:38.657Z,6.95
2019-05-09T15:57:08.665Z,7.47
2019-05-09T15:59:39.006Z,6.97
2019-05-09T16:02:09.177Z,8.53
2019-05-09T16:04:40.041Z,8.00
2019-05-09T16:07:09.382Z,8.35
2019-05-09T16:09:38.577Z,7.40
2019-05-09T16:12:07.911Z,6.90
2019-05-09T16:14:38.101Z,6.70
2019-05-09T16:17:07.950Z,7.53
2019-05-09T16:19:37.935Z,7.72
2019-05-09T16:22:08.039Z,7.90
2019-05-09T16:24:38.160Z,8.65
2019-05-09T16:27:08.584Z,6.62
2019-05-09T16:29:38.321Z,6.85
2019-05-09T16:32:08.823Z,9.95
2019-05-09T16:34:38.760Z,6.75
2019-05-09T16:37:07.983Z,7.08
2019-05-09T16:39:37.883Z,7.00
2019-05-09T16:42:07.718Z,7.50
2019-05-09T16:44:37.743Z,8.83
2019-05-09T16:47:08.338Z,6.47
2019-05-09T16:49:38.703Z,7.20
2019-05-09T16:52:09.247Z,6.95
2019-05-09T16:54:39.783Z,7.62
2019-05-09T16:57:08.948Z,9.25
2019-05-09T16:59:39.081Z,6.95
2019-05-09T17:02:19.045Z,8.00
2019-05-09T17:04:39.199Z,6.95
2019-05-09T17:07:08.489Z,6.42
2019-05-09T17:09:38.959Z,6.12
2019-05-09T17:12:08.378Z,7.15
2019-05-09T17:14:37.629Z,6.25
2019-05-09T17:17:08.395Z,5.42
2019-05-09T17:19:37.811Z,7.10
2019-05-09T17:22:17.634Z,5.70
2019-05-09T17:24:48.372Z,6.17
2019-05-09T17:27:18.815Z,5.65
2019-05-09T17:29:48.400Z,6.37
2019-05-09T17:32:18.301Z,7.58
2019-05-09T17:34:47.657Z,7.05
2019-05-09T17:37:17.735Z,6.95
2019-05-09T17:39:47.423Z,7.15
2019-05-09T17:42:18.275Z,8.30
2019-05-09T17:44:48.848Z,8.03
2019-05-09T17:47:18.622Z,8.80
2019-05-09T17:49:48.364Z,8.35
2019-05-09T17:52:18.289Z,9.40
2019-05-09T17:54:48.558Z,10.85
2019-05-09T17:57:18.846Z,11.50
2019-05-09T17:59:48.963Z,12.80
2019-05-09T18:02:18.433Z,10.80
2019-05-09T18:04:48.097Z,11.12
2019-05-09T18:07:18.192Z,11.08
2019-05-09T18:09:48.311Z,12.98
2019-05-09T18:12:18.957Z,9.63
2019-05-09T18:14:48.450Z,10.63
2019-05-09T18:17:19.305Z,10.85
2019-05-09T18:19:50.730Z,11.20
2019-05-09T18:22:20.114Z,13.00
2019-05-09T18:24:49.535Z,14.05
2019-05-09T18:27:18.887Z,15.43
2019-05-09T18:29:48.294Z,14.65
2019-05-09T18:32:19.334Z,13.65
2019-05-09T18:34:48.749Z,16.23
2019-05-09T18:37:18.351Z,15.63
2019-05-09T18:39:48.463Z,15.72
2019-05-09T18:42:18.072Z,17.02
2019-05-09T18:44:47.713Z,19.00
2019-05-09T18:47:18.487Z,18.95
2019-05-09T18:49:48.117Z,19.98
2019-05-09T18:52:17.311Z,20.85
2019-05-09T18:54:46.935Z,20.75
2019-05-09T18:57:16.197Z,24.37
2019-05-09T18:59:45.512Z,17.52
2019-05-09T19:02:14.630Z,18.25
2019-05-09T19:04:44.303Z,20.25
2019-05-09T19:07:22.615Z,17.45
2019-05-09T19:09:45.223Z,20.10
2019-05-09T19:12:14.510Z,19.70
2019-05-09T19:14:50.051Z,19.52
2019-05-09T19:17:37.145Z,20.48
2019-05-09T19:20:11.284Z,21.70
2019-05-09T19:22:41.599Z,20.60
2019-05-09T19:25:10.698Z,20.32
2019-05-09T19:27:40.010Z,21.27
2019-05-09T19:30:09.310Z,21.15
2019-05-09T19:32:38.963Z,21.30
2019-05-09T19:35:08.619Z,19.10
2019-05-09T19:37:38.831Z,17.20
2019-05-09T19:40:08.439Z,22.52
2019-05-09T19:42:38.290Z,17.12
2019-05-09T19:45:09.535Z,17.12
2019-05-09T19:47:38.896Z,17.52
2019-05-09T19:50:09.271Z,15.80
2019-05-09T19:52:38.904Z,17.77
2019-05-09T19:55:08.540Z,16.62
2019-05-09T19:57:37.807Z,17.55
2019-05-09T20:00:10.359Z,13.85
2019-05-09T20:02:41.310Z,17.05
2019-05-09T20:05:11.651Z,16.82
2019-05-09T20:07:40.953Z,18.90
2019-05-09T20:10:12.212Z,17.20
2019-05-09T20:12:43.774Z,17.65
2019-05-09T20:15:14.385Z,16.93
2019-05-09T20:17:44.495Z,21.25
2019-05-09T20:20:13.500Z,21.30
2019-05-09T20:22:52.517Z,23.10
2019-05-09T20:25:12.920Z,21.93
2019-05-09T20:27:42.039Z,22.98
2019-05-09T20:30:10.943Z,25.27
2019-05-09T20:32:40.000Z,25.30
2019-05-09T20:35:09.074Z,21.57
2019-05-09T20:37:38.229Z,26.82
2019-05-09T20:40:08.082Z,24.00
2019-05-09T20:42:37.291Z,23.90
2019-05-09T20:45:07.322Z,24.90
2019-05-09T20:47:36.674Z,24.90
2019-05-09T20:50:06.699Z,23.55
2019-05-09T20:52:36.150Z,26.35
2019-05-09T20:55:09.875Z,23.32
2019-05-09T20:57:39.310Z,26.02
2019-05-09T21:00:11.491Z,27.65
2019-05-09T21:02:41.833Z,25.80
2019-05-09T21:05:11.258Z,25.55
2019-05-09T21:07:40.544Z,26.97
2019-05-09T21:10:10.973Z,29.82
2019-05-09T21:12:40.262Z,28.02
2019-05-09T21:15:10.605Z,27.62
2019-05-09T21:17:39.749Z,24.67
2019-05-09T21:20:10.345Z,28.83
2019-05-09T21:22:39.408Z,28.87
2019-05-09T21:25:09.231Z,27.67
2019-05-09T21:27:38.466Z,27.20
2019-05-09T21:30:08.356Z,25.40
2019-05-09T21:32:37.882Z,30.88
2019-05-09T21:35:07.873Z,28.40
2019-05-09T21:37:36.867Z,30.35
2019-05-09T21:40:06.794Z,27.87
2019-05-09T21:42:35.901Z,30.00
2019-05-09T21:45:05.879Z,29.40
2019-05-09T21:47:34.981Z,30.08
2019-05-09T21:50:05.043Z,31.73
2019-05-09T21:52:35.618Z,31.97
2019-05-09T21:55:05.013Z,30.17
2019-05-09T21:57:34.394Z,33.35
2019-05-09T22:00:03.982Z,32.23
2019-05-09T22:02:33.108Z,35.20
2019-05-09T22:05:02.528Z,34.35
2019-05-09T22:07:31.344Z,33.83
2019-05-09T22:10:01.130Z,33.60
2019-05-09T22:12:31.186Z,32.23
2019-05-09T22:15:03.661Z,30.97
2019-05-09T22:17:38.988Z,29.55
2019-05-09T22:20:13.454Z,32.75
2019-05-09T22:22:42.784Z,29.87
2019-05-09T22:25:12.269Z,28.70
2019-05-09T22:27:41.037Z,30.40
2019-05-09T22:30:11.759Z,32.03
2019-05-09T22:32:40.588Z,33.48
2019-05-09T22:35:10.539Z,32.48
2019-05-09T22:37:39.619Z,32.53
2019-05-09T22:40:10.207Z,31.40
2019-05-09T22:42:39.015Z,31.17
2019-05-09T22:45:08.383Z,35.45
2019-05-09T22:47:37.546Z,30.90
2019-05-09T22:50:06.862Z,28.17
2019-05-09T22:52:36.061Z,32.08
2019-05-09T22:55:05.382Z,28.12
2019-05-09T22:57:35.191Z,30.43
2019-05-09T23:00:05.270Z,32.65
2019-05-09T23:02:34.472Z,31.33
2019-05-09T23:05:04.680Z,31.73
2019-05-09T23:07:34.083Z,28.73
2019-05-09T23:10:03.470Z,25.25
2019-05-09T23:12:33.010Z,26.65
2019-05-09T23:15:02.475Z,28.05
2019-05-09T23:17:31.288Z,29.70
2019-05-09T23:20:00.593Z,28.07
2019-05-09T23:22:31.208Z,29.80
2019-05-09T23:25:00.506Z,29.82
2019-05-09T23:27:29.720Z,25.60
2019-05-09T23:29:58.950Z,25.82
2019-05-09T23:32:29.500Z,29.12
2019-05-09T23:34:58.545Z,24.47
2019-05-09T23:37:27.789Z,24.40
2019-05-09T23:39:57.671Z,26.52
2019-05-09T23:42:26.876Z,24.90
2019-05-09T23:44:56.469Z,27.25
2019-05-09T23:47:25.558Z,26.48
2019-05-09T23:49:54.636Z,26.97
2019-05-09T23:52:24.156Z,28.75
2019-05-09T23:55:11.727Z,25.23
2019-05-09T23:57:58.728Z,25.30
